sensor_id;sensor_type;location;lat;lon;timestamp;P1;durP1;ratioP1;P2;durP2;ratioP2
35715;SDS011;21840;44.920;8.616;2023-02-11T00:01:29;61.85;;;31.38;;
35715;SDS011;21840;44.920;8.616;2023-02-11T00:03:57;71.82;;;32.03;;
35715;SDS011;21840;44.920;8.616;2023-02-11T00:06:24;63.95;;;30.15;;
35715;SDS011;21840;44.920;8.616;2023-02-11T00:08:52;64.75;;;31.23;;
35715;SDS011;21840;44.920;8.616;2023-02-11T00:11:18;64.50;;;30.65;;
35715;SDS011;21840;44.920;8.616;2023-02-11T00:13:45;63.33;;;29.60;;
35715;SDS011;21840;44.920;8.616;2023-02-11T00:16:12;62.08;;;31.63;;
35715;SDS011;21840;44.920;8.616;2023-02-11T00:18:40;71.70;;;29.55;;
35715;SDS011;21840;44.920;8.616;2023-02-11T00:21:07;67.22;;;29.08;;
35715;SDS011;21840;44.920;8.616;2023-02-11T00:23:33;59.10;;;29.42;;
35715;SDS011;21840;44.920;8.616;2023-02-11T00:25:59;70.68;;;29.92;;
35715;SDS011;21840;44.920;8.616;2023-02-11T00:28:25;58.63;;;29.90;;
35715;SDS011;21840;44.920;8.616;2023-02-11T00:30:54;74.18;;;28.95;;
35715;SDS011;21840;44.920;8.616;2023-02-11T00:33:20;60.50;;;30.08;;
35715;SDS011;21840;44.920;8.616;2023-02-11T00:35:45;54.00;;;28.02;;
35715;SDS011;21840;44.920;8.616;2023-02-11T00:38:11;63.05;;;28.88;;
35715;SDS011;21840;44.920;8.616;2023-02-11T00:40:36;65.07;;;29.42;;
35715;SDS011;21840;44.920;8.616;2023-02-11T00:43:02;65.70;;;29.45;;
35715;SDS011;21840;44.920;8.616;2023-02-11T00:45:27;60.75;;;28.65;;
35715;SDS011;21840;44.920;8.616;2023-02-11T00:47:54;54.88;;;27.58;;
35715;SDS011;21840;44.920;8.616;2023-02-11T00:50:20;59.40;;;29.02;;
35715;SDS011;21840;44.920;8.616;2023-02-11T00:52:46;63.88;;;29.88;;
35715;SDS011;21840;44.920;8.616;2023-02-11T00:55:12;59.08;;;30.60;;
35715;SDS011;21840;44.920;8.616;2023-02-11T00:57:38;59.08;;;29.67;;
35715;SDS011;21840;44.920;8.616;2023-02-11T01:00:04;62.03;;;29.23;;
35715;SDS011;21840;44.920;8.616;2023-02-11T01:02:30;65.32;;;29.98;;
35715;SDS011;21840;44.920;8.616;2023-02-11T01:04:56;64.20;;;30.33;;
35715;SDS011;21840;44.920;8.616;2023-02-11T01:07:24;57.17;;;28.30;;
35715;SDS011;21840;44.920;8.616;2023-02-11T01:09:50;59.72;;;31.17;;
35715;SDS011;21840;44.920;8.616;2023-02-11T01:12:16;60.58;;;30.60;;
35715;SDS011;21840;44.920;8.616;2023-02-11T01:14:41;67.72;;;29.73;;
35715;SDS011;21840;44.920;8.616;2023-02-11T01:17:07;65.05;;;30.30;;
35715;SDS011;21840;44.920;8.616;2023-02-11T01:19:32;126.22;;;35.97;;
35715;SDS011;21840;44.920;8.616;2023-02-11T01:21:57;70.88;;;29.92;;
35715;SDS011;21840;44.920;8.616;2023-02-11T01:24:23;68.90;;;29.15;;
35715;SDS011;21840;44.920;8.616;2023-02-11T01:26:48;65.72;;;29.92;;
35715;SDS011;21840;44.920;8.616;2023-02-11T01:29:14;69.13;;;31.23;;
35715;SDS011;21840;44.920;8.616;2023-02-11T01:31:39;63.92;;;29.42;;
35715;SDS011;21840;44.920;8.616;2023-02-11T01:34:05;62.13;;;29.50;;
35715;SDS011;21840;44.920;8.616;2023-02-11T01:36:30;65.32;;;29.38;;
35715;SDS011;21840;44.920;8.616;2023-02-11T01:38:58;56.80;;;27.33;;
35715;SDS011;21840;44.920;8.616;2023-02-11T01:41:24;62.80;;;29.15;;
35715;SDS011;21840;44.920;8.616;2023-02-11T01:43:49;57.45;;;29.17;;
35715;SDS011;21840;44.920;8.616;2023-02-11T01:49:08;64.40;;;31.55;;
35715;SDS011;21840;44.920;8.616;2023-02-11T01:51:40;59.67;;;28.90;;
35715;SDS011;21840;44.920;8.616;2023-02-11T01:54:09;61.97;;;29.67;;
35715;SDS011;21840;44.920;8.616;2023-02-11T01:56:58;60.28;;;29.20;;
35715;SDS011;21840;44.920;8.616;2023-02-11T02:02:28;64.40;;;28.50;;
35715;SDS011;21840;44.920;8.616;2023-02-11T02:05:50;62.50;;;29.30;;
35715;SDS011;21840;44.920;8.616;2023-02-11T02:07:55;63.38;;;30.77;;
35715;SDS011;21840;44.920;8.616;2023-02-11T02:10:27;65.43;;;31.15;;
35715;SDS011;21840;44.920;8.616;2023-02-11T02:12:53;60.85;;;29.40;;
35715;SDS011;21840;44.920;8.616;2023-02-11T02:15:20;67.55;;;31.45;;
35715;SDS011;21840;44.920;8.616;2023-02-11T02:17:53;58.60;;;29.52;;
35715;SDS011;21840;44.920;8.616;2023-02-11T02:31:50;64.22;;;30.70;;
35715;SDS011;21840;44.920;8.616;2023-02-11T02:34:29;56.83;;;28.85;;
35715;SDS011;21840;44.920;8.616;2023-02-11T02:37:11;60.85;;;28.38;;
35715;SDS011;21840;44.920;8.616;2023-02-11T02:39:45;61.85;;;29.02;;
35715;SDS011;21840;44.920;8.616;2023-02-11T02:42:14;59.88;;;29.52;;
35715;SDS011;21840;44.920;8.616;2023-02-11T02:44:46;58.60;;;29.25;;
35715;SDS011;21840;44.920;8.616;2023-02-11T02:47:12;59.90;;;28.90;;
35715;SDS011;21840;44.920;8.616;2023-02-11T02:49:38;60.05;;;29.15;;
35715;SDS011;21840;44.920;8.616;2023-02-11T02:52:24;64.65;;;29.42;;
35715;SDS011;21840;44.920;8.616;2023-02-11T02:55:16;59.60;;;29.13;;
35715;SDS011;21840;44.920;8.616;2023-02-11T03:03:37;66.55;;;31.02;;
35715;SDS011;21840;44.920;8.616;2023-02-11T03:11:19;58.72;;;27.83;;
35715;SDS011;21840;44.920;8.616;2023-02-11T03:13:46;58.17;;;29.70;;
35715;SDS011;21840;44.920;8.616;2023-02-11T03:16:14;58.70;;;29.20;;
35715;SDS011;21840;44.920;8.616;2023-02-11T03:18:46;63.83;;;29.88;;
35715;SDS011;21840;44.920;8.616;2023-02-11T03:21:14;67.30;;;30.60;;
35715;SDS011;21840;44.920;8.616;2023-02-11T03:23:54;60.85;;;28.17;;
35715;SDS011;21840;44.920;8.616;2023-02-11T03:31:33;59.67;;;29.35;;
35715;SDS011;21840;44.920;8.616;2023-02-11T03:36:40;61.15;;;29.48;;
35715;SDS011;21840;44.920;8.616;2023-02-11T03:39:15;64.33;;;29.83;;
35715;SDS011;21840;44.920;8.616;2023-02-11T03:41:44;58.85;;;29.98;;
35715;SDS011;21840;44.920;8.616;2023-02-11T03:44:12;65.15;;;30.85;;
35715;SDS011;21840;44.920;8.616;2023-02-11T03:46:41;60.58;;;29.40;;
35715;SDS011;21840;44.920;8.616;2023-02-11T03:49:14;61.50;;;29.67;;
35715;SDS011;21840;44.920;8.616;2023-02-11T03:51:44;63.20;;;29.98;;
35715;SDS011;21840;44.920;8.616;2023-02-11T03:54:14;72.60;;;31.52;;
35715;SDS011;21840;44.920;8.616;2023-02-11T03:56:45;66.15;;;30.80;;
35715;SDS011;21840;44.920;8.616;2023-02-11T04:01:40;55.28;;;27.25;;
35715;SDS011;21840;44.920;8.616;2023-02-11T04:04:05;61.78;;;29.45;;
35715;SDS011;21840;44.920;8.616;2023-02-11T04:06:31;64.40;;;31.08;;
35715;SDS011;21840;44.920;8.616;2023-02-11T04:08:56;58.47;;;28.75;;
35715;SDS011;21840;44.920;8.616;2023-02-11T04:11:22;69.03;;;31.45;;
35715;SDS011;21840;44.920;8.616;2023-02-11T04:13:47;65.90;;;30.67;;
35715;SDS011;21840;44.920;8.616;2023-02-11T04:16:12;73.05;;;31.67;;
35715;SDS011;21840;44.920;8.616;2023-02-11T04:18:38;63.53;;;29.77;;
35715;SDS011;21840;44.920;8.616;2023-02-11T04:21:03;67.60;;;30.55;;
35715;SDS011;21840;44.920;8.616;2023-02-11T04:23:29;67.05;;;30.08;;
35715;SDS011;21840;44.920;8.616;2023-02-11T04:25:54;68.45;;;31.73;;
35715;SDS011;21840;44.920;8.616;2023-02-11T04:28:20;63.40;;;30.83;;
35715;SDS011;21840;44.920;8.616;2023-02-11T04:30:45;65.88;;;30.70;;
35715;SDS011;21840;44.920;8.616;2023-02-11T04:33:13;61.83;;;28.85;;
35715;SDS011;21840;44.920;8.616;2023-02-11T04:35:38;58.47;;;29.10;;
35715;SDS011;21840;44.920;8.616;2023-02-11T04:38:04;63.53;;;28.73;;
35715;SDS011;21840;44.920;8.616;2023-02-11T04:40:29;61.58;;;29.95;;
35715;SDS011;21840;44.920;8.616;2023-02-11T04:42:54;61.63;;;28.70;;
35715;SDS011;21840;44.920;8.616;2023-02-11T04:45:20;61.88;;;29.80;;
35715;SDS011;21840;44.920;8.616;2023-02-11T04:47:45;69.38;;;31.88;;
35715;SDS011;21840;44.920;8.616;2023-02-11T04:50:11;62.75;;;29.23;;
35715;SDS011;21840;44.920;8.616;2023-02-11T04:52:36;67.47;;;30.42;;
35715;SDS011;21840;44.920;8.616;2023-02-11T04:55:02;63.78;;;29.55;;
35715;SDS011;21840;44.920;8.616;2023-02-11T04:57:27;64.15;;;29.88;;
35715;SDS011;21840;44.920;8.616;2023-02-11T04:59:53;62.80;;;30.02;;
35715;SDS011;21840;44.920;8.616;2023-02-11T05:02:18;67.38;;;30.55;;
35715;SDS011;21840;44.920;8.616;2023-02-11T05:04:44;63.65;;;30.70;;
35715;SDS011;21840;44.920;8.616;2023-02-11T05:07:09;63.83;;;30.85;;
35715;SDS011;21840;44.920;8.616;2023-02-11T05:09:35;62.80;;;30.58;;
35715;SDS011;21840;44.920;8.616;2023-02-11T05:12:00;67.22;;;30.70;;
35715;SDS011;21840;44.920;8.616;2023-02-11T05:14:26;57.47;;;29.17;;
35715;SDS011;21840;44.920;8.616;2023-02-11T05:16:51;64.78;;;29.95;;
35715;SDS011;21840;44.920;8.616;2023-02-11T05:19:17;61.47;;;31.33;;
35715;SDS011;21840;44.920;8.616;2023-02-11T05:21:42;67.18;;;31.38;;
35715;SDS011;21840;44.920;8.616;2023-02-11T05:24:07;72.78;;;29.88;;
35715;SDS011;21840;44.920;8.616;2023-02-11T05:26:33;67.85;;;31.02;;
35715;SDS011;21840;44.920;8.616;2023-02-11T05:28:58;66.43;;;30.17;;
35715;SDS011;21840;44.920;8.616;2023-02-11T05:31:24;64.40;;;30.48;;
35715;SDS011;21840;44.920;8.616;2023-02-11T05:33:49;64.45;;;30.60;;
35715;SDS011;21840;44.920;8.616;2023-02-11T05:36:15;64.35;;;29.95;;
35715;SDS011;21840;44.920;8.616;2023-02-11T05:38:41;64.90;;;29.35;;
35715;SDS011;21840;44.920;8.616;2023-02-11T05:41:07;62.72;;;28.50;;
35715;SDS011;21840;44.920;8.616;2023-02-11T05:43:34;63.90;;;28.63;;
35715;SDS011;21840;44.920;8.616;2023-02-11T05:46:01;61.38;;;29.58;;
35715;SDS011;21840;44.920;8.616;2023-02-11T05:48:27;65.82;;;30.67;;
35715;SDS011;21840;44.920;8.616;2023-02-11T05:50:53;61.60;;;30.55;;
35715;SDS011;21840;44.920;8.616;2023-02-11T05:53:18;68.63;;;30.40;;
35715;SDS011;21840;44.920;8.616;2023-02-11T05:55:44;59.92;;;30.52;;
35715;SDS011;21840;44.920;8.616;2023-02-11T05:58:10;64.32;;;29.95;;
35715;SDS011;21840;44.920;8.616;2023-02-11T06:00:35;64.90;;;29.92;;
35715;SDS011;21840;44.920;8.616;2023-02-11T06:03:01;59.15;;;29.58;;
35715;SDS011;21840;44.920;8.616;2023-02-11T06:05:28;65.93;;;30.42;;
35715;SDS011;21840;44.920;8.616;2023-02-11T06:07:54;63.58;;;30.58;;
35715;SDS011;21840;44.920;8.616;2023-02-11T06:10:19;64.43;;;29.40;;
35715;SDS011;21840;44.920;8.616;2023-02-11T06:12:45;59.03;;;30.02;;
35715;SDS011;21840;44.920;8.616;2023-02-11T06:15:10;63.75;;;30.00;;
35715;SDS011;21840;44.920;8.616;2023-02-11T06:17:36;59.75;;;30.42;;
35715;SDS011;21840;44.920;8.616;2023-02-11T06:20:02;61.80;;;29.13;;
35715;SDS011;21840;44.920;8.616;2023-02-11T06:22:31;61.22;;;29.27;;
35715;SDS011;21840;44.920;8.616;2023-02-11T06:24:56;64.63;;;29.48;;
35715;SDS011;21840;44.920;8.616;2023-02-11T06:27:22;64.70;;;31.00;;
35715;SDS011;21840;44.920;8.616;2023-02-11T06:29:47;71.88;;;31.23;;
35715;SDS011;21840;44.920;8.616;2023-02-11T06:32:13;67.63;;;31.25;;
35715;SDS011;21840;44.920;8.616;2023-02-11T06:34:39;63.85;;;29.42;;
35715;SDS011;21840;44.920;8.616;2023-02-11T06:37:05;60.97;;;30.45;;
35715;SDS011;21840;44.920;8.616;2023-02-11T06:39:30;70.38;;;31.92;;
35715;SDS011;21840;44.920;8.616;2023-02-11T06:41:56;70.53;;;32.40;;
35715;SDS011;21840;44.920;8.616;2023-02-11T06:44:21;72.47;;;31.42;;
35715;SDS011;21840;44.920;8.616;2023-02-11T06:46:47;66.55;;;31.80;;
35715;SDS011;21840;44.920;8.616;2023-02-11T06:49:12;70.72;;;32.65;;
35715;SDS011;21840;44.920;8.616;2023-02-11T06:51:38;71.35;;;33.70;;
35715;SDS011;21840;44.920;8.616;2023-02-11T06:54:04;77.60;;;32.65;;
35715;SDS011;21840;44.920;8.616;2023-02-11T06:56:30;68.45;;;32.85;;
35715;SDS011;21840;44.920;8.616;2023-02-11T06:58:56;70.30;;;33.15;;
35715;SDS011;21840;44.920;8.616;2023-02-11T07:01:22;70.40;;;31.65;;
35715;SDS011;21840;44.920;8.616;2023-02-11T07:03:48;68.60;;;32.05;;
35715;SDS011;21840;44.920;8.616;2023-02-11T07:06:16;76.10;;;32.67;;
35715;SDS011;21840;44.920;8.616;2023-02-11T07:08:44;85.63;;;32.45;;
35715;SDS011;21840;44.920;8.616;2023-02-11T07:11:15;69.20;;;32.10;;
35715;SDS011;21840;44.920;8.616;2023-02-11T07:13:42;91.55;;;33.15;;
35715;SDS011;21840;44.920;8.616;2023-02-11T07:16:09;73.90;;;33.30;;
35715;SDS011;21840;44.920;8.616;2023-02-11T07:18:37;69.75;;;31.75;;
35715;SDS011;21840;44.920;8.616;2023-02-11T07:21:06;70.05;;;32.60;;
35715;SDS011;21840;44.920;8.616;2023-02-11T07:23:33;77.57;;;33.38;;
35715;SDS011;21840;44.920;8.616;2023-02-11T07:26:09;66.45;;;31.83;;
35715;SDS011;21840;44.920;8.616;2023-02-11T07:28:36;71.97;;;31.38;;
35715;SDS011;21840;44.920;8.616;2023-02-11T07:33:35;61.22;;;30.27;;
35715;SDS011;21840;44.920;8.616;2023-02-11T07:36:03;62.22;;;31.02;;
35715;SDS011;21840;44.920;8.616;2023-02-11T07:38:30;60.95;;;30.45;;
35715;SDS011;21840;44.920;8.616;2023-02-11T07:41:03;73.60;;;30.90;;
35715;SDS011;21840;44.920;8.616;2023-02-11T07:43:30;67.70;;;32.53;;
35715;SDS011;21840;44.920;8.616;2023-02-11T07:45:56;61.58;;;31.65;;
35715;SDS011;21840;44.920;8.616;2023-02-11T07:48:22;65.53;;;29.73;;
35715;SDS011;21840;44.920;8.616;2023-02-11T07:50:48;67.18;;;31.73;;
35715;SDS011;21840;44.920;8.616;2023-02-11T07:53:13;72.22;;;32.55;;
35715;SDS011;21840;44.920;8.616;2023-02-11T07:55:39;63.08;;;30.15;;
35715;SDS011;21840;44.920;8.616;2023-02-11T07:58:06;71.22;;;32.50;;
35715;SDS011;21840;44.920;8.616;2023-02-11T08:00:31;91.75;;;36.08;;
35715;SDS011;21840;44.920;8.616;2023-02-11T08:02:57;68.10;;;32.80;;
35715;SDS011;21840;44.920;8.616;2023-02-11T08:05:22;82.15;;;35.80;;
35715;SDS011;21840;44.920;8.616;2023-02-11T08:07:51;79.30;;;33.78;;
35715;SDS011;21840;44.920;8.616;2023-02-11T08:10:17;94.45;;;34.97;;
35715;SDS011;21840;44.920;8.616;2023-02-11T08:12:43;77.53;;;34.08;;
35715;SDS011;21840;44.920;8.616;2023-02-11T08:15:09;65.53;;;32.05;;
35715;SDS011;21840;44.920;8.616;2023-02-11T08:17:34;68.43;;;31.88;;
35715;SDS011;21840;44.920;8.616;2023-02-11T08:20:00;70.20;;;31.20;;
35715;SDS011;21840;44.920;8.616;2023-02-11T08:22:29;68.78;;;33.08;;
35715;SDS011;21840;44.920;8.616;2023-02-11T08:24:56;65.43;;;30.45;;
35715;SDS011;21840;44.920;8.616;2023-02-11T08:27:22;63.95;;;30.92;;
35715;SDS011;21840;44.920;8.616;2023-02-11T08:29:48;62.28;;;30.52;;
35715;SDS011;21840;44.920;8.616;2023-02-11T08:32:14;62.10;;;30.95;;
35715;SDS011;21840;44.920;8.616;2023-02-11T08:34:39;67.13;;;29.85;;
35715;SDS011;21840;44.920;8.616;2023-02-11T08:37:05;60.95;;;29.73;;
35715;SDS011;21840;44.920;8.616;2023-02-11T08:39:30;63.13;;;30.42;;
35715;SDS011;21840;44.920;8.616;2023-02-11T08:41:56;69.32;;;31.42;;
35715;SDS011;21840;44.920;8.616;2023-02-11T08:44:22;68.93;;;30.75;;
35715;SDS011;21840;44.920;8.616;2023-02-11T08:46:48;66.03;;;30.35;;
35715;SDS011;21840;44.920;8.616;2023-02-11T08:49:14;62.13;;;30.80;;
35715;SDS011;21840;44.920;8.616;2023-02-11T08:51:40;71.55;;;31.38;;
35715;SDS011;21840;44.920;8.616;2023-02-11T08:54:06;71.63;;;32.25;;
35715;SDS011;21840;44.920;8.616;2023-02-11T08:56:34;58.15;;;29.98;;
35715;SDS011;21840;44.920;8.616;2023-02-11T08:59:00;62.78;;;29.70;;
35715;SDS011;21840;44.920;8.616;2023-02-11T09:01:27;62.38;;;30.83;;
35715;SDS011;21840;44.920;8.616;2023-02-11T09:03:55;65.72;;;30.75;;
35715;SDS011;21840;44.920;8.616;2023-02-11T09:06:22;68.10;;;31.23;;
35715;SDS011;21840;44.920;8.616;2023-02-11T09:08:50;61.92;;;31.35;;
35715;SDS011;21840;44.920;8.616;2023-02-11T09:11:18;59.65;;;31.20;;
35715;SDS011;21840;44.920;8.616;2023-02-11T09:13:45;66.15;;;33.13;;
35715;SDS011;21840;44.920;8.616;2023-02-11T09:16:15;63.25;;;31.55;;
35715;SDS011;21840;44.920;8.616;2023-02-11T09:18:43;57.72;;;30.92;;
35715;SDS011;21840;44.920;8.616;2023-02-11T09:21:09;60.22;;;29.88;;
35715;SDS011;21840;44.920;8.616;2023-02-11T09:23:35;62.72;;;31.33;;
35715;SDS011;21840;44.920;8.616;2023-02-11T09:26:07;63.78;;;31.75;;
35715;SDS011;21840;44.920;8.616;2023-02-11T09:28:34;61.88;;;31.00;;
35715;SDS011;21840;44.920;8.616;2023-02-11T09:31:04;58.22;;;30.33;;
35715;SDS011;21840;44.920;8.616;2023-02-11T09:33:30;71.88;;;30.73;;
35715;SDS011;21840;44.920;8.616;2023-02-11T09:35:59;53.25;;;29.80;;
35715;SDS011;21840;44.920;8.616;2023-02-11T09:38:25;59.78;;;29.80;;
35715;SDS011;21840;44.920;8.616;2023-02-11T09:40:51;65.07;;;29.38;;
35715;SDS011;21840;44.920;8.616;2023-02-11T09:43:18;62.13;;;28.52;;
35715;SDS011;21840;44.920;8.616;2023-02-11T09:45:45;62.75;;;29.48;;
35715;SDS011;21840;44.920;8.616;2023-02-11T09:48:16;60.80;;;29.05;;
35715;SDS011;21840;44.920;8.616;2023-02-11T09:51:02;57.95;;;27.58;;
35715;SDS011;21840;44.920;8.616;2023-02-11T09:53:30;60.83;;;29.38;;
35715;SDS011;21840;44.920;8.616;2023-02-11T09:56:03;56.55;;;28.73;;
35715;SDS011;21840;44.920;8.616;2023-02-11T09:58:37;63.33;;;29.15;;
35715;SDS011;21840;44.920;8.616;2023-02-11T10:01:15;52.30;;;28.30;;
35715;SDS011;21840;44.920;8.616;2023-02-11T10:03:50;59.47;;;29.52;;
35715;SDS011;21840;44.920;8.616;2023-02-11T10:06:41;60.50;;;29.00;;
35715;SDS011;21840;44.920;8.616;2023-02-11T10:22:44;58.45;;;26.42;;
35715;SDS011;21840;44.920;8.616;2023-02-11T10:25:18;58.30;;;26.42;;
35715;SDS011;21840;44.920;8.616;2023-02-11T10:27:46;53.90;;;28.27;;
35715;SDS011;21840;44.920;8.616;2023-02-11T10:30:18;58.58;;;28.23;;
35715;SDS011;21840;44.920;8.616;2023-02-11T10:32:51;50.55;;;25.92;;
35715;SDS011;21840;44.920;8.616;2023-02-11T10:35:24;51.80;;;27.98;;
35715;SDS011;21840;44.920;8.616;2023-02-11T10:37:51;55.33;;;27.33;;
35715;SDS011;21840;44.920;8.616;2023-02-11T10:40:18;51.13;;;26.73;;
35715;SDS011;21840;44.920;8.616;2023-02-11T10:42:50;54.53;;;26.70;;
35715;SDS011;21840;44.920;8.616;2023-02-11T10:45:24;51.53;;;26.88;;
35715;SDS011;21840;44.920;8.616;2023-02-11T10:47:56;49.05;;;26.10;;
35715;SDS011;21840;44.920;8.616;2023-02-11T10:50:30;54.67;;;27.30;;
35715;SDS011;21840;44.920;8.616;2023-02-11T10:53:18;52.53;;;27.00;;
35715;SDS011;21840;44.920;8.616;2023-02-11T10:56:03;57.03;;;27.08;;
35715;SDS011;21840;44.920;8.616;2023-02-11T10:58:31;50.30;;;26.50;;
35715;SDS011;21840;44.920;8.616;2023-02-11T11:01:04;51.17;;;27.63;;
35715;SDS011;21840;44.920;8.616;2023-02-11T11:03:34;51.25;;;26.05;;
35715;SDS011;21840;44.920;8.616;2023-02-11T11:06:04;47.42;;;25.55;;
35715;SDS011;21840;44.920;8.616;2023-02-11T11:08:46;52.30;;;28.23;;
35715;SDS011;21840;44.920;8.616;2023-02-11T11:18:48;48.60;;;26.20;;
35715;SDS011;21840;44.920;8.616;2023-02-11T11:21:22;42.15;;;23.25;;
35715;SDS011;21840;44.920;8.616;2023-02-11T11:23:59;43.72;;;23.00;;
35715;SDS011;21840;44.920;8.616;2023-02-11T11:29:18;38.10;;;21.25;;
35715;SDS011;21840;44.920;8.616;2023-02-11T11:31:54;32.90;;;18.40;;
35715;SDS011;21840;44.920;8.616;2023-02-11T11:34:33;33.75;;;19.27;;
35715;SDS011;21840;44.920;8.616;2023-02-11T11:37:23;36.30;;;19.27;;
35715;SDS011;21840;44.920;8.616;2023-02-11T11:39:56;34.13;;;18.92;;
35715;SDS011;21840;44.920;8.616;2023-02-11T11:42:34;39.67;;;19.73;;
35715;SDS011;21840;44.920;8.616;2023-02-11T11:45:02;42.63;;;18.20;;
35715;SDS011;21840;44.920;8.616;2023-02-11T11:47:46;37.70;;;18.73;;
35715;SDS011;21840;44.920;8.616;2023-02-11T11:58:36;35.42;;;17.40;;
35715;SDS011;21840;44.920;8.616;2023-02-11T12:09:33;35.13;;;18.13;;
35715;SDS011;21840;44.920;8.616;2023-02-11T12:14:56;35.50;;;18.23;;
35715;SDS011;21840;44.920;8.616;2023-02-11T12:37:03;37.95;;;20.00;;
35715;SDS011;21840;44.920;8.616;2023-02-11T12:45:18;39.35;;;20.10;;
35715;SDS011;21840;44.920;8.616;2023-02-11T12:48:01;32.92;;;18.92;;
35715;SDS011;21840;44.920;8.616;2023-02-11T12:56:08;35.42;;;20.95;;
35715;SDS011;21840;44.920;8.616;2023-02-11T12:58:42;37.80;;;20.45;;
35715;SDS011;21840;44.920;8.616;2023-02-11T13:01:20;36.50;;;19.90;;
35715;SDS011;21840;44.920;8.616;2023-02-11T13:06:21;38.17;;;20.75;;
35715;SDS011;21840;44.920;8.616;2023-02-11T13:08:53;41.58;;;22.23;;
35715;SDS011;21840;44.920;8.616;2023-02-11T13:11:26;37.47;;;20.63;;
35715;SDS011;21840;44.920;8.616;2023-02-11T13:29:35;34.53;;;19.15;;
35715;SDS011;21840;44.920;8.616;2023-02-11T13:32:17;40.00;;;19.90;;
35715;SDS011;21840;44.920;8.616;2023-02-11T13:40:09;31.58;;;17.42;;
35715;SDS011;21840;44.920;8.616;2023-02-11T13:42:47;31.80;;;18.38;;
35715;SDS011;21840;44.920;8.616;2023-02-11T13:45:16;33.90;;;20.35;;
35715;SDS011;21840;44.920;8.616;2023-02-11T13:47:55;33.38;;;19.65;;
35715;SDS011;21840;44.920;8.616;2023-02-11T13:50:22;44.25;;;18.92;;
35715;SDS011;21840;44.920;8.616;2023-02-11T13:52:55;29.50;;;17.55;;
35715;SDS011;21840;44.920;8.616;2023-02-11T13:55:23;34.95;;;18.67;;
35715;SDS011;21840;44.920;8.616;2023-02-11T14:14:15;29.35;;;17.33;;
35715;SDS011;21840;44.920;8.616;2023-02-11T14:19:30;29.58;;;15.02;;
35715;SDS011;21840;44.920;8.616;2023-02-11T14:22:03;32.10;;;15.07;;
35715;SDS011;21840;44.920;8.616;2023-02-11T14:24:59;26.73;;;14.25;;
35715;SDS011;21840;44.920;8.616;2023-02-11T14:30:20;28.02;;;14.82;;
35715;SDS011;21840;44.920;8.616;2023-02-11T14:33:05;25.35;;;13.35;;
35715;SDS011;21840;44.920;8.616;2023-02-11T14:36:06;24.33;;;12.90;;
35715;SDS011;21840;44.920;8.616;2023-02-11T14:41:28;14.95;;;8.13;;
35715;SDS011;21840;44.920;8.616;2023-02-11T14:44:16;14.18;;;7.82;;
35715;SDS011;21840;44.920;8.616;2023-02-11T14:46:48;15.45;;;9.13;;
35715;SDS011;21840;44.920;8.616;2023-02-11T14:49:36;25.25;;;10.55;;
35715;SDS011;21840;44.920;8.616;2023-02-11T14:52:15;26.92;;;12.93;;
35715;SDS011;21840;44.920;8.616;2023-02-11T14:54:43;28.80;;;12.68;;
35715;SDS011;21840;44.920;8.616;2023-02-11T14:57:16;23.30;;;12.60;;
35715;SDS011;21840;44.920;8.616;2023-02-11T15:02:29;27.85;;;12.57;;
35715;SDS011;21840;44.920;8.616;2023-02-11T15:07:49;26.95;;;14.32;;
35715;SDS011;21840;44.920;8.616;2023-02-11T15:12:58;30.00;;;16.50;;
35715;SDS011;21840;44.920;8.616;2023-02-11T15:15:25;24.13;;;14.43;;
35715;SDS011;21840;44.920;8.616;2023-02-11T15:17:51;25.55;;;13.35;;
35715;SDS011;21840;44.920;8.616;2023-02-11T15:20:21;24.90;;;14.30;;
35715;SDS011;21840;44.920;8.616;2023-02-11T15:22:53;30.67;;;14.10;;
35715;SDS011;21840;44.920;8.616;2023-02-11T15:25:22;25.55;;;13.75;;
35715;SDS011;21840;44.920;8.616;2023-02-11T15:27:49;26.42;;;13.70;;
35715;SDS011;21840;44.920;8.616;2023-02-11T15:30:22;23.13;;;12.90;;
35715;SDS011;21840;44.920;8.616;2023-02-11T15:35:25;26.45;;;13.38;;
35715;SDS011;21840;44.920;8.616;2023-02-11T15:37:53;24.10;;;12.93;;
35715;SDS011;21840;44.920;8.616;2023-02-11T15:40:21;21.35;;;12.23;;
35715;SDS011;21840;44.920;8.616;2023-02-11T15:42:57;19.67;;;11.80;;
35715;SDS011;21840;44.920;8.616;2023-02-11T15:45:39;21.90;;;11.90;;
35715;SDS011;21840;44.920;8.616;2023-02-11T15:48:21;22.50;;;11.77;;
35715;SDS011;21840;44.920;8.616;2023-02-11T15:51:10;23.35;;;11.90;;
35715;SDS011;21840;44.920;8.616;2023-02-11T15:53:40;19.73;;;11.85;;
35715;SDS011;21840;44.920;8.616;2023-02-11T15:58:44;18.45;;;11.48;;
35715;SDS011;21840;44.920;8.616;2023-02-11T16:01:13;23.75;;;12.43;;
35715;SDS011;21840;44.920;8.616;2023-02-11T16:03:40;34.33;;;12.13;;
35715;SDS011;21840;44.920;8.616;2023-02-11T16:06:23;24.45;;;13.23;;
35715;SDS011;21840;44.920;8.616;2023-02-11T16:16:57;35.17;;;14.18;;
35715;SDS011;21840;44.920;8.616;2023-02-11T16:19:32;32.00;;;13.30;;
35715;SDS011;21840;44.920;8.616;2023-02-11T16:21:59;27.52;;;12.75;;
35715;SDS011;21840;44.920;8.616;2023-02-11T16:24:33;26.63;;;12.60;;
35715;SDS011;21840;44.920;8.616;2023-02-11T16:27:04;32.80;;;13.30;;
35715;SDS011;21840;44.920;8.616;2023-02-11T16:29:32;24.55;;;12.73;;
35715;SDS011;21840;44.920;8.616;2023-02-11T16:32:08;22.30;;;12.00;;
35715;SDS011;21840;44.920;8.616;2023-02-11T16:34:40;34.65;;;13.07;;
35715;SDS011;21840;44.920;8.616;2023-02-11T16:37:06;25.13;;;12.75;;
35715;SDS011;21840;44.920;8.616;2023-02-11T16:39:32;24.70;;;12.55;;
35715;SDS011;21840;44.920;8.616;2023-02-11T16:41:58;31.25;;;13.50;;
35715;SDS011;21840;44.920;8.616;2023-02-11T16:44:24;23.27;;;12.20;;
35715;SDS011;21840;44.920;8.616;2023-02-11T16:46:50;30.60;;;12.85;;
35715;SDS011;21840;44.920;8.616;2023-02-11T16:49:23;24.00;;;12.90;;
35715;SDS011;21840;44.920;8.616;2023-02-11T16:51:53;27.08;;;13.55;;
35715;SDS011;21840;44.920;8.616;2023-02-11T16:54:21;34.20;;;13.77;;
35715;SDS011;21840;44.920;8.616;2023-02-11T16:56:47;30.48;;;13.30;;
35715;SDS011;21840;44.920;8.616;2023-02-11T16:59:13;36.72;;;14.13;;
35715;SDS011;21840;44.920;8.616;2023-02-11T17:01:39;30.17;;;14.48;;
35715;SDS011;21840;44.920;8.616;2023-02-11T17:04:06;24.98;;;14.40;;
35715;SDS011;21840;44.920;8.616;2023-02-11T17:06:37;33.90;;;16.38;;
35715;SDS011;21840;44.920;8.616;2023-02-11T17:09:02;32.40;;;15.52;;
35715;SDS011;21840;44.920;8.616;2023-02-11T17:11:30;36.63;;;15.02;;
35715;SDS011;21840;44.920;8.616;2023-02-11T17:13:55;34.97;;;14.95;;
35715;SDS011;21840;44.920;8.616;2023-02-11T17:16:21;32.65;;;15.25;;
35715;SDS011;21840;44.920;8.616;2023-02-11T17:18:48;34.17;;;15.48;;
35715;SDS011;21840;44.920;8.616;2023-02-11T17:21:14;35.95;;;15.80;;
35715;SDS011;21840;44.920;8.616;2023-02-11T17:23:40;42.05;;;17.15;;
35715;SDS011;21840;44.920;8.616;2023-02-11T17:26:06;38.33;;;16.50;;
35715;SDS011;21840;44.920;8.616;2023-02-11T17:28:32;35.72;;;17.00;;
35715;SDS011;21840;44.920;8.616;2023-02-11T17:30:59;40.05;;;17.02;;
35715;SDS011;21840;44.920;8.616;2023-02-11T17:33:25;35.78;;;16.25;;
35715;SDS011;21840;44.920;8.616;2023-02-11T17:35:50;35.65;;;17.95;;
35715;SDS011;21840;44.920;8.616;2023-02-11T17:38:16;34.70;;;17.08;;